sensor_id;sensor_type;location;lat;lon;timestamp;pressure;altitude;pressure_sealevel;temperature;humidity
26043;BME280;13818;52.156;5.382;2023-05-22T00:00:02;101341.75;;;15.87;100.00
26043;BME280;13818;52.156;5.382;2023-05-22T00:02:33;101337.09;;;15.75;100.00
26043;BME280;13818;52.156;5.382;2023-05-22T00:05:03;101325.75;;;15.70;100.00
26043;BME280;13818;52.156;5.382;2023-05-22T00:07:31;101322.38;;;15.66;100.00
26043;BME280;13818;52.156;5.382;2023-05-22T00:09:57;101330.59;;;15.63;100.00
26043;BME280;13818;52.156;5.382;2023-05-22T00:12:24;101330.34;;;15.68;100.00
26043;BME280;13818;52.156;5.382;2023-05-22T00:14:50;101330.22;;;15.69;100.00
26043;BME280;13818;52.156;5.382;2023-05-22T00:17:19;101327.09;;;15.77;100.00
26043;BME280;13818;52.156;5.382;2023-05-22T00:19:47;101322.50;;;15.79;100.00
26043;BME280;13818;52.156;5.382;2023-05-22T00:22:13;101322.94;;;15.87;100.00
26043;BME280;13818;52.156;5.382;2023-05-22T00:24:40;101318.78;;;15.82;100.00
26043;BME280;13818;52.156;5.382;2023-05-22T00:27:06;101311.84;;;15.77;100.00
26043;BME280;13818;52.156;5.382;2023-05-22T00:29:33;101319.03;;;15.77;100.00
26043;BME280;13818;52.156;5.382;2023-05-22T00:31:59;101310.19;;;15.75;100.00
26043;BME280;13818;52.156;5.382;2023-05-22T00:34:26;101312.22;;;15.71;100.00
26043;BME280;13818;52.156;5.382;2023-05-22T00:36:54;101311.44;;;15.69;100.00
26043;BME280;13818;52.156;5.382;2023-05-22T00:39:20;101307.56;;;15.59;100.00
26043;BME280;13818;52.156;5.382;2023-05-22T00:41:55;101317.81;;;15.52;100.00
26043;BME280;13818;52.156;5.382;2023-05-22T00:44:23;101317.31;;;15.45;100.00
26043;BME280;13818;52.156;5.382;2023-05-22T00:46:50;101310.03;;;15.48;100.00
26043;BME280;13818;52.156;5.382;2023-05-22T00:49:16;101300.44;;;15.43;100.00
26043;BME280;13818;52.156;5.382;2023-05-22T00:51:43;101297.66;;;15.45;100.00
26043;BME280;13818;52.156;5.382;2023-05-22T00:54:12;101291.69;;;15.40;100.00
26043;BME280;13818;52.156;5.382;2023-05-22T00:56:40;101292.38;;;15.43;100.00
26043;BME280;13818;52.156;5.382;2023-05-22T00:59:07;101284.22;;;15.45;100.00
26043;BME280;13818;52.156;5.382;2023-05-22T01:01:34;101292.97;;;15.49;100.00
26043;BME280;13818;52.156;5.382;2023-05-22T01:04:03;101292.69;;;15.53;100.00
26043;BME280;13818;52.156;5.382;2023-05-22T01:06:32;101289.13;;;15.53;100.00
26043;BME280;13818;52.156;5.382;2023-05-22T01:08:58;101278.28;;;15.54;100.00
26043;BME280;13818;52.156;5.382;2023-05-22T01:11:30;101278.28;;;15.54;100.00
26043;BME280;13818;52.156;5.382;2023-05-22T01:14:01;101264.47;;;15.46;100.00
26043;BME280;13818;52.156;5.382;2023-05-22T01:16:38;101260.88;;;15.45;100.00
26043;BME280;13818;52.156;5.382;2023-05-22T01:19:22;101259.94;;;15.46;100.00
26043;BME280;13818;52.156;5.382;2023-05-22T01:22:04;101267.84;;;15.50;100.00
26043;BME280;13818;52.156;5.382;2023-05-22T01:24:48;101270.59;;;15.48;100.00
26043;BME280;13818;52.156;5.382;2023-05-22T01:27:54;101265.41;;;15.45;100.00
26043;BME280;13818;52.156;5.382;2023-05-22T01:30:46;101260.81;;;15.47;100.00
26043;BME280;13818;52.156;5.382;2023-05-22T01:33:14;101268.09;;;15.45;100.00
26043;BME280;13818;52.156;5.382;2023-05-22T01:35:44;101251.88;;;15.46;100.00
26043;BME280;13818;52.156;5.382;2023-05-22T01:38:12;101258.63;;;15.54;100.00
26043;BME280;13818;52.156;5.382;2023-05-22T01:40:39;101261.31;;;15.54;100.00
26043;BME280;13818;52.156;5.382;2023-05-22T01:43:07;101247.88;;;15.54;100.00
26043;BME280;13818;52.156;5.382;2023-05-22T01:45:34;101254.88;;;15.56;100.00
26043;BME280;13818;52.156;5.382;2023-05-22T01:48:03;101246.03;;;15.54;100.00
26043;BME280;13818;52.156;5.382;2023-05-22T01:50:29;101252.56;;;15.50;100.00
26043;BME280;13818;52.156;5.382;2023-05-22T01:53:02;101249.63;;;15.55;100.00
26043;BME280;13818;52.156;5.382;2023-05-22T01:55:45;101245.09;;;15.55;100.00
26043;BME280;13818;52.156;5.382;2023-05-22T01:58:23;101243.47;;;15.53;100.00
26043;BME280;13818;52.156;5.382;2023-05-22T02:00:55;101242.22;;;15.58;100.00
26043;BME280;13818;52.156;5.382;2023-05-22T02:03:28;101241.56;;;15.55;100.00
26043;BME280;13818;52.156;5.382;2023-05-22T02:05:58;101242.31;;;15.57;100.00
26043;BME280;13818;52.156;5.382;2023-05-22T02:08:25;101229.75;;;15.57;100.00
26043;BME280;13818;52.156;5.382;2023-05-22T02:10:54;101230.59;;;15.58;100.00
26043;BME280;13818;52.156;5.382;2023-05-22T02:13:21;101234.06;;;15.60;100.00
26043;BME280;13818;52.156;5.382;2023-05-22T02:15:48;101228.69;;;15.60;100.00
26043;BME280;13818;52.156;5.382;2023-05-22T02:18:16;101221.38;;;15.62;100.00
26043;BME280;13818;52.156;5.382;2023-05-22T02:20:44;101224.28;;;15.59;100.00
26043;BME280;13818;52.156;5.382;2023-05-22T02:23:11;101233.97;;;15.61;100.00
26043;BME280;13818;52.156;5.382;2023-05-22T02:25:37;101226.69;;;15.64;100.00
26043;BME280;13818;52.156;5.382;2023-05-22T02:28:04;101233.97;;;15.61;100.00
26043;BME280;13818;52.156;5.382;2023-05-22T02:30:30;101229.66;;;15.59;100.00
26043;BME280;13818;52.156;5.382;2023-05-22T02:32:57;101226.50;;;15.67;100.00
26043;BME280;13818;52.156;5.382;2023-05-22T02:35:24;101220.06;;;15.69;100.00
26043;BME280;13818;52.156;5.382;2023-05-22T02:37:52;101219.00;;;15.72;100.00
26043;BME280;13818;52.156;5.382;2023-05-22T02:40:19;101222.16;;;15.64;100.00
26043;BME280;13818;52.156;5.382;2023-05-22T02:42:45;101221.88;;;15.54;100.00
26043;BME280;13818;52.156;5.382;2023-05-22T02:45:12;101222.44;;;15.45;100.00
26043;BME280;13818;52.156;5.382;2023-05-22T02:47:38;101219.75;;;15.45;100.00
26043;BME280;13818;52.156;5.382;2023-05-22T02:50:06;101210.84;;;15.44;100.00
26043;BME280;13818;52.156;5.382;2023-05-22T02:52:32;101220.59;;;15.45;100.00
26043;BME280;13818;52.156;5.382;2023-05-22T02:55:00;101211.78;;;15.43;100.00
26043;BME280;13818;52.156;5.382;2023-05-22T02:57:28;101199.22;;;15.44;100.00
26043;BME280;13818;52.156;5.382;2023-05-22T02:59:55;101208.22;;;15.43;100.00
26043;BME280;13818;52.156;5.382;2023-05-22T03:02:24;101201.16;;;15.42;100.00
26043;BME280;13818;52.156;5.382;2023-05-22T03:04:52;101206.41;;;15.43;100.00
26043;BME280;13818;52.156;5.382;2023-05-22T03:07:19;101201.91;;;15.44;100.00
26043;BME280;13818;52.156;5.382;2023-05-22T03:09:46;101195.78;;;15.42;100.00
26043;BME280;13818;52.156;5.382;2023-05-22T03:12:14;101188.94;;;15.36;100.00
26043;BME280;13818;52.156;5.382;2023-05-22T03:14:40;101198.84;;;15.36;100.00
26043;BME280;13818;52.156;5.382;2023-05-22T03:17:07;101193.53;;;15.34;100.00
26043;BME280;13818;52.156;5.382;2023-05-22T03:19:35;101202.56;;;15.33;100.00
26043;BME280;13818;52.156;5.382;2023-05-22T03:22:02;101194.22;;;15.38;100.00
26043;BME280;13818;52.156;5.382;2023-05-22T03:24:28;101208.09;;;15.30;100.00
26043;BME280;13818;52.156;5.382;2023-05-22T03:26:55;101211.84;;;15.27;100.00
26043;BME280;13818;52.156;5.382;2023-05-22T03:29:23;101209.75;;;15.33;100.00
26043;BME280;13818;52.156;5.382;2023-05-22T03:31:52;101205.78;;;15.24;100.00
26043;BME280;13818;52.156;5.382;2023-05-22T03:34:18;101210.41;;;15.22;100.00
26043;BME280;13818;52.156;5.382;2023-05-22T03:36:46;101210.56;;;15.19;100.00
26043;BME280;13818;52.156;5.382;2023-05-22T03:39:13;101218.03;;;15.13;100.00
26043;BME280;13818;52.156;5.382;2023-05-22T03:41:40;101207.75;;;15.06;100.00
26043;BME280;13818;52.156;5.382;2023-05-22T03:44:06;101204.59;;;14.99;100.00
26043;BME280;13818;52.156;5.382;2023-05-22T03:46:34;101207.34;;;14.97;100.00
26043;BME280;13818;52.156;5.382;2023-05-22T03:49:01;101209.44;;;14.92;100.00
26043;BME280;13818;52.156;5.382;2023-05-22T03:51:27;101206.06;;;14.89;100.00
26043;BME280;13818;52.156;5.382;2023-05-22T03:53:54;101214.91;;;14.91;100.00
26043;BME280;13818;52.156;5.382;2023-05-22T03:56:20;101217.31;;;14.95;100.00
26043;BME280;13818;52.156;5.382;2023-05-22T03:58:47;101208.81;;;15.03;100.00
26043;BME280;13818;52.156;5.382;2023-05-22T04:01:14;101210.53;;;15.04;100.00
26043;BME280;13818;52.156;5.382;2023-05-22T04:03:42;101212.34;;;15.04;100.00
26043;BME280;13818;52.156;5.382;2023-05-22T04:06:09;101210.34;;;15.07;100.00
26043;BME280;13818;52.156;5.382;2023-05-22T04:08:38;101213.03;;;15.07;100.00
26043;BME280;13818;52.156;5.382;2023-05-22T04:11:04;101201.72;;;15.02;100.00
26043;BME280;13818;52.156;5.382;2023-05-22T04:13:31;101206.88;;;15.05;100.00
26043;BME280;13818;52.156;5.382;2023-05-22T04:15:57;101208.91;;;15.02;100.00
26043;BME280;13818;52.156;5.382;2023-05-22T04:18:26;101218.25;;;15.10;100.00
26043;BME280;13818;52.156;5.382;2023-05-22T04:20:54;101218.84;;;15.00;100.00
26043;BME280;13818;52.156;5.382;2023-05-22T04:23:20;101222.34;;;14.86;100.00
26043;BME280;13818;52.156;5.382;2023-05-22T04:25:47;101224.44;;;14.80;100.00
26043;BME280;13818;52.156;5.382;2023-05-22T04:28:13;101239.25;;;14.72;100.00
26043;BME280;13818;52.156;5.382;2023-05-22T04:30:42;101248.84;;;14.76;100.00
26043;BME280;13818;52.156;5.382;2023-05-22T04:33:08;101252.47;;;14.75;100.00
26043;BME280;13818;52.156;5.382;2023-05-22T04:35:35;101254.38;;;14.57;100.00
26043;BME280;13818;52.156;5.382;2023-05-22T04:38:03;101251.28;;;14.64;100.00
26043;BME280;13818;52.156;5.382;2023-05-22T04:40:30;101253.63;;;14.71;100.00
26043;BME280;13818;52.156;5.382;2023-05-22T04:42:58;101261.41;;;14.75;100.00
26043;BME280;13818;52.156;5.382;2023-05-22T04:45:25;101266.78;;;14.75;100.00
26043;BME280;13818;52.156;5.382;2023-05-22T04:47:53;101270.81;;;14.83;100.00
26043;BME280;13818;52.156;5.382;2023-05-22T04:50:20;101264.94;;;14.76;100.00
26043;BME280;13818;52.156;5.382;2023-05-22T04:52:46;101271.09;;;14.78;100.00
26043;BME280;13818;52.156;5.382;2023-05-22T04:55:14;101273.19;;;14.73;100.00
26043;BME280;13818;52.156;5.382;2023-05-22T04:57:41;101282.97;;;14.74;100.00
26043;BME280;13818;52.156;5.382;2023-05-22T05:00:10;101283.72;;;14.76;100.00
26043;BME280;13818;52.156;5.382;2023-05-22T05:02:38;101277.22;;;14.80;100.00
26043;BME280;13818;52.156;5.382;2023-05-22T05:05:05;101281.50;;;14.84;100.00
26043;BME280;13818;52.156;5.382;2023-05-22T05:07:35;101269.97;;;14.82;100.00
26043;BME280;13818;52.156;5.382;2023-05-22T05:10:02;101277.22;;;14.96;100.00
26043;BME280;13818;52.156;5.382;2023-05-22T05:12:30;101277.31;;;15.10;100.00
26043;BME280;13818;52.156;5.382;2023-05-22T05:14:57;101274.66;;;15.25;100.00
26043;BME280;13818;52.156;5.382;2023-05-22T05:17:23;101277.59;;;15.51;100.00
26043;BME280;13818;52.156;5.382;2023-05-22T05:19:50;101271.56;;;15.92;100.00
26043;BME280;13818;52.156;5.382;2023-05-22T05:22:16;101281.06;;;16.41;100.00
26043;BME280;13818;52.156;5.382;2023-05-22T05:24:43;101277.84;;;16.90;100.00
26043;BME280;13818;52.156;5.382;2023-05-22T05:27:10;101279.91;;;17.42;100.00
26043;BME280;13818;52.156;5.382;2023-05-22T05:29:38;101262.59;;;17.84;100.00
26043;BME280;13818;52.156;5.382;2023-05-22T05:32:06;101271.75;;;18.33;100.00
26043;BME280;13818;52.156;5.382;2023-05-22T05:34:33;101266.97;;;18.74;100.00
26043;BME280;13818;52.156;5.382;2023-05-22T05:37:00;101257.28;;;19.20;100.00
26043;BME280;13818;52.156;5.382;2023-05-22T05:39:27;101245.81;;;19.41;100.00
26043;BME280;13818;52.156;5.382;2023-05-22T05:41:53;101249.34;;;19.88;100.00
26043;BME280;13818;52.156;5.382;2023-05-22T05:44:20;101253.06;;;20.10;100.00
26043;BME280;13818;52.156;5.382;2023-05-22T05:46:48;101248.47;;;20.56;100.00
26043;BME280;13818;52.156;5.382;2023-05-22T05:49:15;101248.69;;;20.64;100.00
26043;BME280;13818;52.156;5.382;2023-05-22T05:51:41;101246.81;;;20.87;100.00
26043;BME280;13818;52.156;5.382;2023-05-22T05:54:08;101247.66;;;21.20;100.00
26043;BME280;13818;52.156;5.382;2023-05-22T05:56:35;101246.53;;;21.23;100.00
26043;BME280;13818;52.156;5.382;2023-05-22T05:59:02;101239.88;;;21.48;100.00
26043;BME280;13818;52.156;5.382;2023-05-22T06:01:29;101229.84;;;21.60;100.00
26043;BME280;13818;52.156;5.382;2023-05-22T06:03:58;101235.50;;;21.78;100.00
26043;BME280;13818;52.156;5.382;2023-05-22T06:06:27;101234.91;;;21.74;100.00
26043;BME280;13818;52.156;5.382;2023-05-22T06:08:55;101238.63;;;22.04;100.00
26043;BME280;13818;52.156;5.382;2023-05-22T06:11:22;101235.81;;;22.56;100.00
26043;BME280;13818;52.156;5.382;2023-05-22T06:13:49;101225.44;;;22.91;100.00
26043;BME280;13818;52.156;5.382;2023-05-22T06:16:17;101235.28;;;22.92;100.00
26043;BME280;13818;52.156;5.382;2023-05-22T06:18:44;101238.72;;;22.94;100.00
26043;BME280;13818;52.156;5.382;2023-05-22T06:21:19;101241.06;;;23.28;100.00
26043;BME280;13818;52.156;5.382;2023-05-22T06:23:46;101236.88;;;23.44;100.00
26043;BME280;13818;52.156;5.382;2023-05-22T06:26:14;101250.47;;;23.53;100.00
26043;BME280;13818;52.156;5.382;2023-05-22T06:28:41;101245.00;;;23.63;100.00
26043;BME280;13818;52.156;5.382;2023-05-22T06:31:08;101245.59;;;23.37;100.00
26043;BME280;13818;52.156;5.382;2023-05-22T06:33:35;101249.94;;;23.30;100.00
26043;BME280;13818;52.156;5.382;2023-05-22T06:36:03;101251.53;;;23.80;100.00
26043;BME280;13818;52.156;5.382;2023-05-22T06:38:31;101255.41;;;24.53;100.00
26043;BME280;13818;52.156;5.382;2023-05-22T06:40:57;101266.47;;;24.51;100.00
26043;BME280;13818;52.156;5.382;2023-05-22T06:43:24;101264.13;;;24.66;100.00
26043;BME280;13818;52.156;5.382;2023-05-22T06:45:51;101262.81;;;24.89;100.00
26043;BME280;13818;52.156;5.382;2023-05-22T06:48:17;101254.16;;;24.93;100.00
26043;BME280;13818;52.156;5.382;2023-05-22T06:50:44;101260.34;;;24.95;100.00
26043;BME280;13818;52.156;5.382;2023-05-22T06:53:10;101260.00;;;25.16;100.00
26043;BME280;13818;52.156;5.382;2023-05-22T06:55:38;101257.16;;;25.62;100.00
26043;BME280;13818;52.156;5.382;2023-05-22T06:58:06;101260.09;;;25.95;100.00
26043;BME280;13818;52.156;5.382;2023-05-22T07:00:32;101260.88;;;26.06;100.00
26043;BME280;13818;52.156;5.382;2023-05-22T07:02:59;101265.72;;;26.20;100.00
26043;BME280;13818;52.156;5.382;2023-05-22T07:05:26;101263.00;;;26.71;100.00
26043;BME280;13818;52.156;5.382;2023-05-22T07:07:52;101264.47;;;27.17;100.00
26043;BME280;13818;52.156;5.382;2023-05-22T07:10:20;101260.84;;;26.91;100.00
26043;BME280;13818;52.156;5.382;2023-05-22T07:12:48;101271.44;;;26.78;100.00
26043;BME280;13818;52.156;5.382;2023-05-22T07:15:15;101272.03;;;27.39;100.00
26043;BME280;13818;52.156;5.382;2023-05-22T07:17:41;101273.88;;;27.39;100.00
26043;BME280;13818;52.156;5.382;2023-05-22T07:20:08;101282.06;;;27.97;100.00
26043;BME280;13818;52.156;5.382;2023-05-22T07:22:35;101275.22;;;27.76;100.00
26043;BME280;13818;52.156;5.382;2023-05-22T07:25:01;101279.75;;;28.25;100.00
26043;BME280;13818;52.156;5.382;2023-05-22T07:27:29;101275.50;;;27.98;100.00
26043;BME280;13818;52.156;5.382;2023-05-22T07:29:57;101272.44;;;28.57;100.00
26043;BME280;13818;52.156;5.382;2023-05-22T07:32:23;101275.00;;;28.02;92.00
26043;BME280;13818;52.156;5.382;2023-05-22T07:34:50;101281.06;;;28.46;97.67
26043;BME280;13818;52.156;5.382;2023-05-22T07:37:16;101278.19;;;28.31;100.00
26043;BME280;13818;52.156;5.382;2023-05-22T07:39:43;101276.25;;;28.79;94.15
26043;BME280;13818;52.156;5.382;2023-05-22T07:42:11;101280.03;;;29.33;95.84
26043;BME280;13818;52.156;5.382;2023-05-22T07:44:39;101277.44;;;29.31;97.20
26043;BME280;13818;52.156;5.382;2023-05-22T07:47:08;101269.13;;;28.70;98.82
26043;BME280;13818;52.156;5.382;2023-05-22T07:49:34;101272.00;;;28.37;100.00
26043;BME280;13818;52.156;5.382;2023-05-22T07:52:01;101274.09;;;28.98;100.00
26043;BME280;13818;52.156;5.382;2023-05-22T07:54:27;101276.19;;;28.56;99.92
26043;BME280;13818;52.156;5.382;2023-05-22T07:56:54;101276.81;;;28.66;97.90
26043;BME280;13818;52.156;5.382;2023-05-22T07:59:21;101284.94;;;28.12;99.15
26043;BME280;13818;52.156;5.382;2023-05-22T08:01:49;101281.66;;;28.16;100.00
26043;BME280;13818;52.156;5.382;2023-05-22T08:04:17;101281.81;;;28.63;100.00
26043;BME280;13818;52.156;5.382;2023-05-22T08:06:44;101279.56;;;28.27;100.00
26043;BME280;13818;52.156;5.382;2023-05-22T08:09:10;101281.19;;;27.96;100.00
26043;BME280;13818;52.156;5.382;2023-05-22T08:11:37;101285.03;;;28.27;100.00
26043;BME280;13818;52.156;5.382;2023-05-22T08:14:06;101291.81;;;27.99;100.00
26043;BME280;13818;52.156;5.382;2023-05-22T08:16:33;101295.94;;;27.37;100.00
26043;BME280;13818;52.156;5.382;2023-05-22T08:18:59;101295.09;;;27.53;100.00
26043;BME280;13818;52.156;5.382;2023-05-22T08:21:27;101292.03;;;27.56;93.81
26043;BME280;13818;52.156;5.382;2023-05-22T08:23:55;101292.38;;;27.62;100.00
26043;BME280;13818;52.156;5.382;2023-05-22T08:26:21;101294.53;;;27.91;100.00
26043;BME280;13818;52.156;5.382;2023-05-22T08:28:48;101286.75;;;27.47;100.00
26043;BME280;13818;52.156;5.382;2023-05-22T08:31:15;101285.34;;;27.51;100.00
26043;BME280;13818;52.156;5.382;2023-05-22T08:33:41;101285.31;;;26.50;100.00
26043;BME280;13818;52.156;5.382;2023-05-22T08:36:08;101287.19;;;27.01;100.00
26043;BME280;13818;52.156;5.382;2023-05-22T08:38:36;101283.09;;;26.45;100.00
26043;BME280;13818;52.156;5.382;2023-05-22T08:41:03;101274.66;;;26.39;100.00
26043;BME280;13818;52.156;5.382;2023-05-22T08:43:31;101279.19;;;25.87;100.00
26043;BME280;13818;52.156;5.382;2023-05-22T08:45:59;101277.84;;;26.69;100.00
26043;BME280;13818;52.156;5.382;2023-05-22T08:48:29;101274.34;;;26.42;100.00
26043;BME280;13818;52.156;5.382;2023-05-22T08:50:57;101270.25;;;26.46;100.00
26043;BME280;13818;52.156;5.382;2023-05-22T08:53:24;101276.44;;;26.56;100.00
26043;BME280;13818;52.156;5.382;2023-05-22T08:55:55;101273.53;;;27.09;100.00
26043;BME280;13818;52.156;5.382;2023-05-22T08:58:22;101270.84;;;26.58;100.00
26043;BME280;13818;52.156;5.382;2023-05-22T09:00:48;101281.13;;;26.72;100.00
26043;BME280;13818;52.156;5.382;2023-05-22T09:03:16;101276.06;;;26.43;100.00
26043;BME280;13818;52.156;5.382;2023-05-22T09:05:46;101268.13;;;26.23;100.00
26043;BME280;13818;52.156;5.382;2023-05-22T09:08:13;101265.63;;;26.04;100.00
26043;BME280;13818;52.156;5.382;2023-05-22T09:10:40;101268.88;;;25.55;100.00
26043;BME280;13818;52.156;5.382;2023-05-22T09:13:08;101271.03;;;25.95;100.00
26043;BME280;13818;52.156;5.382;2023-05-22T09:15:36;101263.84;;;26.21;100.00
26043;BME280;13818;52.156;5.382;2023-05-22T09:18:03;101265.69;;;25.41;100.00
26043;BME280;13818;52.156;5.382;2023-05-22T09:20:33;101266.31;;;25.35;100.00
26043;BME280;13818;52.156;5.382;2023-05-22T09:23:00;101262.28;;;25.65;100.00
26043;BME280;13818;52.156;5.382;2023-05-22T09:25:28;101261.38;;;25.57;100.00
26043;BME280;13818;52.156;5.382;2023-05-22T09:27:54;101257.22;;;25.71;100.00
26043;BME280;13818;52.156;5.382;2023-05-22T09:30:22;101252.28;;;25.74;100.00
26043;BME280;13818;52.156;5.382;2023-05-22T09:32:49;101249.88;;;26.24;100.00
26043;BME280;13818;52.156;5.382;2023-05-22T09:35:17;101255.28;;;25.63;100.00
26043;BME280;13818;52.156;5.382;2023-05-22T09:37:44;101252.13;;;25.31;100.00
26043;BME280;13818;52.156;5.382;2023-05-22T09:40:11;101260.88;;;24.99;100.00
26043;BME280;13818;52.156;5.382;2023-05-22T09:42:42;101254.25;;;24.56;100.00
26043;BME280;13818;52.156;5.382;2023-05-22T09:45:10;101250.44;;;24.94;100.00
26043;BME280;13818;52.156;5.382;2023-05-22T09:47:38;101253.78;;;25.24;100.00
26043;BME280;13818;52.156;5.382;2023-05-22T09:50:05;101249.56;;;25.30;100.00
26043;BME280;13818;52.156;5.382;2023-05-22T09:52:35;101247.53;;;25.32;100.00
26043;BME280;13818;52.156;5.382;2023-05-22T09:55:04;101243.88;;;25.41;100.00
26043;BME280;13818;52.156;5.382;2023-05-22T09:57:32;101244.78;;;25.50;100.00
26043;BME280;13818;52.156;5.382;2023-05-22T10:00:00;101246.72;;;25.58;100.00
26043;BME280;13818;52.156;5.382;2023-05-22T10:02:34;101249.94;;;25.53;100.00
26043;BME280;13818;52.156;5.382;2023-05-22T10:05:05;101244.88;;;25.40;100.00
26043;BME280;13818;52.156;5.382;2023-05-22T10:07:35;101251.53;;;25.38;100.00
26043;BME280;13818;52.156;5.382;2023-05-22T10:10:04;101239.25;;;25.60;100.00
26043;BME280;13818;52.156;5.382;2023-05-22T10:12:36;101238.53;;;25.58;100.00
26043;BME280;13818;52.156;5.382;2023-05-22T10:15:07;101250.78;;;25.54;100.00
26043;BME280;13818;52.156;5.382;2023-05-22T10:17:35;101257.34;;;25.43;100.00
26043;BME280;13818;52.156;5.382;2023-05-22T10:20:04;101249.34;;;25.41;100.00
26043;BME280;13818;52.156;5.382;2023-05-22T10:22:33;101245.28;;;25.27;100.00
26043;BME280;13818;52.156;5.382;2023-05-22T10:25:01;101240.59;;;25.20;100.00
26043;BME280;13818;52.156;5.382;2023-05-22T10:27:28;101240.38;;;25.13;100.00
26043;BME280;13818;52.156;5.382;2023-05-22T10:30:00;101245.34;;;25.36;100.00
26043;BME280;13818;52.156;5.382;2023-05-22T10:32:34;101241.06;;;25.15;100.00
26043;BME280;13818;52.156;5.382;2023-05-22T10:35:12;101233.38;;;24.92;100.00
26043;BME280;13818;52.156;5.382;2023-05-22T10:37:48;101240.63;;;25.01;100.00
26043;BME280;13818;52.156;5.382;2023-05-22T10:40:19;101235.19;;;25.01;100.00
26043;BME280;13818;52.156;5.382;2023-05-22T10:42:55;101233.84;;;24.88;100.00
26043;BME280;13818;52.156;5.382;2023-05-22T10:45:25;101230.41;;;25.22;100.00
26043;BME280;13818;52.156;5.382;2023-05-22T10:48:01;101230.28;;;25.31;100.00
26043;BME280;13818;52.156;5.382;2023-05-22T10:50:29;101225.66;;;25.42;100.00
26043;BME280;13818;52.156;5.382;2023-05-22T10:53:18;101224.25;;;25.64;100.00
26043;BME280;13818;52.156;5.382;2023-05-22T10:55:46;101215.47;;;25.52;100.00
26043;BME280;13818;52.156;5.382;2023-05-22T10:58:12;101225.59;;;25.60;100.00
26043;BME280;13818;52.156;5.382;2023-05-22T11:00:39;101239.03;;;25.35;100.00
26043;BME280;13818;52.156;5.382;2023-05-22T11:03:06;101233.16;;;25.48;100.00
26043;BME280;13818;52.156;5.382;2023-05-22T11:05:35;101225.53;;;25.52;100.00
26043;BME280;13818;52.156;5.382;2023-05-22T11:08:34;101227.50;;;25.41;100.00
26043;BME280;13818;52.156;5.382;2023-05-22T11:11:11;101225.31;;;25.45;100.00
26043;BME280;13818;52.156;5.382;2023-05-22T11:13:37;101218.78;;;25.38;100.00
26043;BME280;13818;52.156;5.382;2023-05-22T11:16:07;101221.88;;;25.43;100.00
26043;BME280;13818;52.156;5.382;2023-05-22T11:18:34;101222.22;;;25.40;100.00
26043;BME280;13818;52.156;5.382;2023-05-22T11:21:02;101214.41;;;25.45;100.00
26043;BME280;13818;52.156;5.382;2023-05-22T11:23:32;101206.28;;;25.53;100.00
26043;BME280;13818;52.156;5.382;2023-05-22T11:26:16;101211.06;;;25.33;100.00
26043;BME280;13818;52.156;5.382;2023-05-22T11:28:47;101212.25;;;25.30;100.00
26043;BME280;13818;52.156;5.382;2023-05-22T11:31:15;101209.75;;;25.19;100.00
26043;BME280;13818;52.156;5.382;2023-05-22T11:33:43;101203.66;;;25.25;100.00
26043;BME280;13818;52.156;5.382;2023-05-22T11:36:11;101194.34;;;24.92;100.00
26043;BME280;13818;52.156;5.382;2023-05-22T11:38:38;101204.53;;;25.26;100.00
26043;BME280;13818;52.156;5.382;2023-05-22T11:41:07;101204.97;;;25.21;100.00
26043;BME280;13818;52.156;5.382;2023-05-22T11:43:34;101201.16;;;25.14;100.00
26043;BME280;13818;52.156;5.382;2023-05-22T11:46:04;101199.94;;;25.08;100.00
26043;BME280;13818;52.156;5.382;2023-05-22T11:48:32;101200.31;;;25.13;100.00
26043;BME280;13818;52.156;5.382;2023-05-22T11:50:58;101192.22;;;25.22;100.00
26043;BME280;13818;52.156;5.382;2023-05-22T11:53:27;101188.13;;;25.44;100.00
26043;BME280;13818;52.156;5.382;2023-05-22T11:55:55;101189.06;;;25.34;100.00
26043;BME280;13818;52.156;5.382;2023-05-22T11:58:26;101188.25;;;25.16;100.00
26043;BME280;13818;52.156;5.382;2023-05-22T12:00:56;101189.53;;;25.30;100.00
26043;BME280;13818;52.156;5.382;2023-05-22T12:03:23;101194.84;;;25.49;100.00
26043;BME280;13818;52.156;5.382;2023-05-22T12:05:51;101192.56;;;25.45;100.00
26043;BME280;13818;52.156;5.382;2023-05-22T12:08:17;101196.53;;;25.50;100.00
26043;BME280;13818;52.156;5.382;2023-05-22T12:10:49;101193.28;;;25.47;100.00
26043;BME280;13818;52.156;5.382;2023-05-22T12:13:23;101192.84;;;25.60;100.00
26043;BME280;13818;52.156;5.382;2023-05-22T12:15:52;101190.22;;;25.76;100.00
26043;BME280;13818;52.156;5.382;2023-05-22T12:18:19;101183.91;;;25.76;100.00
26043;BME280;13818;52.156;5.382;2023-05-22T12:20:46;101189.47;;;25.66;100.00
26043;BME280;13818;52.156;5.382;2023-05-22T12:23:20;101184.03;;;25.74;100.00
26043;BME280;13818;52.156;5.382;2023-05-22T12:25:56;101185.44;;;26.13;100.00
26043;BME280;13818;52.156;5.382;2023-05-22T12:28:23;101191.56;;;26.07;100.00
26043;BME280;13818;52.156;5.382;2023-05-22T12:30:51;101196.72;;;26.10;100.00
26043;BME280;13818;52.156;5.382;2023-05-22T12:33:19;101192.41;;;26.07;100.00
26043;BME280;13818;52.156;5.382;2023-05-22T12:35:49;101193.31;;;26.16;100.00
26043;BME280;13818;52.156;5.382;2023-05-22T12:38:19;101193.00;;;25.93;100.00
26043;BME280;13818;52.156;5.382;2023-05-22T12:40:46;101195.25;;;25.63;100.00
26043;BME280;13818;52.156;5.382;2023-05-22T12:43:14;101190.50;;;25.73;100.00
26043;BME280;13818;52.156;5.382;2023-05-22T12:45:40;101181.47;;;25.38;100.00